createdAt,value
2018-11-05T00:01:59.554Z,100222.95
2018-11-05T00:04:33.368Z,100229.47
2018-11-05T00:07:07.274Z,100235.23
2018-11-05T00:09:40.762Z,100230.30
2018-11-05T00:12:14.475Z,100226.73
2018-11-05T00:14:48.520Z,100226.73
2018-11-05T00:17:22.810Z,100234.08
2018-11-05T00:19:56.296Z,100217.98
2018-11-05T00:22:29.998Z,100217.98
2018-11-05T00:25:03.569Z,100226.61
2018-11-05T00:27:37.355Z,100228.50
2018-11-05T00:30:13.332Z,100228.50
2018-11-05T00:32:46.753Z,100221.02
2018-11-05T00:35:21.276Z,100216.48
2018-11-05T00:37:54.721Z,100216.48
2018-11-05T00:40:28.675Z,100221.94
2018-11-05T00:43:02.270Z,100218.38
2018-11-05T00:45:36.362Z,100216.14
2018-11-05T00:48:09.780Z,100226.21
2018-11-05T00:50:43.304Z,100232.19
2018-11-05T00:53:16.795Z,100232.19
2018-11-05T00:55:50.428Z,100219.26
2018-11-05T00:58:24.278Z,100219.26
2018-11-05T01:00:57.733Z,100219.13
2018-11-05T01:03:31.563Z,100210.42
2018-11-05T01:06:05.134Z,100215.04
2018-11-05T01:08:39.319Z,100215.04
2018-11-05T01:11:12.782Z,100202.45
2018-11-05T01:13:46.369Z,100202.45
2018-11-05T01:16:32.304Z,100202.45
2018-11-05T01:19:06.369Z,100201.27
2018-11-05T01:21:39.971Z,100201.48
2018-11-05T01:24:13.527Z,100195.51
2018-11-05T01:26:46.992Z,100205.58
2018-11-05T01:31:46.866Z,100195.42
2018-11-05T01:34:19.088Z,100184.78
2018-11-05T01:36:52.445Z,100183.11
2018-11-05T01:39:25.480Z,100183.63
2018-11-05T01:41:58.478Z,100175.64
2018-11-05T01:44:31.537Z,100188.74
2018-11-05T01:47:04.753Z,100184.86
2018-11-05T01:49:38.273Z,100178.94
2018-11-05T01:52:11.752Z,100178.94
2018-11-05T01:54:45.499Z,100174.66
2018-11-05T01:57:19.263Z,100174.66
2018-11-05T01:59:52.799Z,100174.66
2018-11-05T02:02:26.503Z,100174.92
2018-11-05T02:05:00.130Z,100174.92
2018-11-05T02:07:33.588Z,100184.73
2018-11-05T02:10:13.500Z,100172.64
2018-11-05T02:12:47.287Z,100169.73
2018-11-05T02:15:20.873Z,100167.54
2018-11-05T02:17:52.290Z,100167.85
2018-11-05T02:20:25.231Z,100159.67
2018-11-05T02:22:58.700Z,100159.67
2018-11-05T02:25:32.549Z,100164.55
2018-11-05T02:28:06.425Z,100171.67
2018-11-05T02:30:41.278Z,100170.13
2018-11-05T02:33:15.266Z,100153.78
2018-11-05T02:35:48.777Z,100150.52
2018-11-05T02:38:22.969Z,100156.11
2018-11-05T02:40:56.784Z,100156.11
2018-11-05T02:43:30.370Z,100149.87
2018-11-05T02:46:03.789Z,100149.87
2018-11-05T02:48:37.478Z,100149.60
2018-11-05T02:51:10.826Z,100149.60
2018-11-05T02:53:44.526Z,100140.06
2018-11-05T02:56:18.392Z,100140.06
2018-11-05T02:58:51.777Z,100145.52
2018-11-05T03:01:25.736Z,100149.81
2018-11-05T03:03:59.383Z,100149.81
2018-11-05T03:06:32.793Z,100146.22
2018-11-05T03:09:08.274Z,100144.59
2018-11-05T03:11:42.179Z,100144.59
2018-11-05T03:14:21.747Z,100144.23
2018-11-05T03:16:55.370Z,100128.98
2018-11-05T03:19:29.050Z,100128.98
2018-11-05T03:22:02.584Z,100132.15
2018-11-05T03:24:36.273Z,100128.05
2018-11-05T03:27:09.785Z,100135.40
2018-11-05T03:29:43.365Z,100116.89
2018-11-05T03:32:17.019Z,100116.89
2018-11-05T03:34:51.060Z,100119.94
2018-11-05T03:37:24.589Z,100113.12
2018-11-05T03:39:58.347Z,100113.98
2018-11-05T03:42:32.043Z,100112.80
2018-11-05T03:45:05.581Z,100114.17
2018-11-05T03:47:39.262Z,100110.91
2018-11-05T03:50:19.273Z,100104.63
2018-11-05T03:52:52.734Z,100111.13
2018-11-05T03:55:27.524Z,100115.53
2018-11-05T03:58:01.045Z,100129.38
2018-11-05T04:00:34.506Z,100122.74
2018-11-05T04:03:08.342Z,100114.87
2018-11-05T04:05:41.808Z,100113.02
2018-11-05T04:08:16.035Z,100118.97
2018-11-05T04:10:50.285Z,100118.97
2018-11-05T04:13:23.696Z,100116.23
2018-11-05T04:16:03.662Z,100103.79
2018-11-05T04:18:37.032Z,100099.70
2018-11-05T04:21:10.560Z,100104.31
2018-11-05T04:23:44.372Z,100099.17
2018-11-05T04:26:17.767Z,100097.28
2018-11-05T04:28:51.474Z,100085.95
2018-11-05T04:31:25.775Z,100085.95
2018-11-05T04:33:59.519Z,100094.03
2018-11-05T04:36:33.055Z,100094.03
2018-11-05T04:39:09.809Z,100096.45
2018-11-05T04:41:43.600Z,100097.77
2018-11-05T04:44:17.277Z,100097.77
2018-11-05T04:46:50.810Z,100095.80
2018-11-05T04:49:24.539Z,100096.84
2018-11-05T04:51:58.270Z,100096.84
2018-11-05T04:54:31.742Z,100103.84
2018-11-05T04:57:05.470Z,100092.68
2018-11-05T04:59:38.755Z,100092.68
2018-11-05T05:02:12.375Z,100095.53
2018-11-05T05:04:45.791Z,100095.53
2018-11-05T05:07:19.484Z,100095.53
2018-11-05T05:09:52.778Z,100095.53
2018-11-05T05:12:26.505Z,100086.21
2018-11-05T05:15:00.058Z,100086.21
2018-11-05T05:17:33.670Z,100080.42
2018-11-05T05:20:09.802Z,100078.22
2018-11-05T05:22:43.729Z,100082.30
2018-11-05T05:25:17.429Z,100082.30
2018-11-05T05:27:50.783Z,100087.45
2018-11-05T05:30:24.485Z,100082.70
2018-11-05T05:32:58.064Z,100082.70
2018-11-05T05:35:31.597Z,100090.30
2018-11-05T05:38:05.283Z,100085.50
2018-11-05T05:40:39.314Z,100080.89
2018-11-05T05:43:12.777Z,100084.27
2018-11-05T05:45:46.492Z,100057.59
2018-11-05T05:48:19.803Z,100057.59
2018-11-05T05:50:53.863Z,100062.64
2018-11-05T05:54:32.504Z,100062.10
2018-11-05T05:57:05.495Z,100063.30
2018-11-05T05:59:38.544Z,100062.25
2018-11-05T06:02:11.472Z,100056.40
2018-11-05T06:04:45.275Z,100057.05
2018-11-05T06:07:18.500Z,100066.90
2018-11-05T06:09:52.518Z,100060.95
2018-11-05T06:12:25.493Z,100072.36
2018-11-05T06:14:58.492Z,100086.51
2018-11-05T06:18:57.950Z,100076.78
2018-11-05T06:23:23.459Z,100077.58
2018-11-05T06:25:56.355Z,100084.45
2018-11-05T06:28:29.855Z,100076.93
2018-11-05T06:31:03.227Z,100072.13
2018-11-05T06:33:36.303Z,100070.24
2018-11-05T06:36:09.257Z,100069.41
2018-11-05T06:38:42.404Z,100066.34
2018-11-05T06:41:16.075Z,100057.32
2018-11-05T06:59:17.798Z,100073.16
2018-11-05T07:01:50.865Z,100072.81
2018-11-05T07:04:22.712Z,100082.53
2018-11-05T07:06:56.271Z,100094.22
2018-11-05T07:09:29.464Z,100089.83
2018-11-05T07:12:02.368Z,100088.55
2018-11-05T07:14:35.268Z,100090.53
2018-11-05T07:17:08.246Z,100091.19
2018-11-05T07:19:41.472Z,100090.48
2018-11-05T07:22:14.538Z,100096.25
2018-11-05T07:24:47.611Z,100103.94
2018-11-05T07:27:20.494Z,100104.42
2018-11-05T07:29:53.533Z,100105.08
2018-11-05T07:32:27.278Z,100108.46
2018-11-05T07:35:00.471Z,100105.34
2018-11-05T07:37:33.471Z,100106.17
2018-11-05T07:40:07.436Z,100104.63
2018-11-05T07:42:40.887Z,100096.77
2018-11-05T07:45:17.401Z,100100.86
2018-11-05T07:47:50.663Z,100102.56
2018-11-05T07:50:24.376Z,100094.91
2018-11-05T07:52:57.442Z,100096.28
2018-11-05T07:55:30.449Z,100094.39
2018-11-05T07:58:03.463Z,100095.41
2018-11-05T08:00:53.470Z,100102.22
2018-11-05T08:03:26.902Z,100094.05
2018-11-05T08:05:59.364Z,100096.77
2018-11-05T08:08:32.635Z,100100.36
2018-11-05T08:11:05.479Z,100107.36
2018-11-05T08:13:38.536Z,100106.00
2018-11-05T08:16:11.499Z,100115.84
2018-11-05T08:18:44.512Z,100112.50
2018-11-05T08:21:17.442Z,100105.69
2018-11-05T08:23:50.509Z,100103.98
2018-11-05T08:26:23.496Z,100099.58
2018-11-05T08:28:56.483Z,100100.59
2018-11-05T08:31:29.500Z,100109.12
2018-11-05T08:34:02.515Z,100100.28
2018-11-05T08:36:35.541Z,100091.80
2018-11-05T08:39:13.265Z,100084.98
2018-11-05T08:41:46.794Z,100084.98
2018-11-05T08:44:19.573Z,100084.46
2018-11-05T08:46:52.742Z,100083.28
2018-11-05T08:49:25.645Z,100085.83
2018-11-05T08:51:58.507Z,100080.03
2018-11-05T08:54:31.900Z,100078.35
2018-11-05T08:57:05.548Z,100080.89
2018-11-05T08:59:38.515Z,100076.47
2018-11-05T09:02:11.462Z,100081.61
2018-11-05T09:04:45.346Z,100088.73
2018-11-05T09:07:18.475Z,100092.50
2018-11-05T09:09:51.606Z,100085.69
2018-11-05T09:12:24.508Z,100086.53
2018-11-05T09:14:57.511Z,100092.81
2018-11-05T09:17:31.068Z,100095.55
2018-11-05T09:20:04.516Z,100101.83
2018-11-05T09:22:37.858Z,100100.99
2018-11-05T09:25:12.973Z,100092.69
2018-11-05T09:27:46.321Z,100092.69
2018-11-05T09:30:20.824Z,100108.15
2018-11-05T09:32:54.436Z,100086.09
2018-11-05T09:35:27.511Z,100086.09
2018-11-05T09:38:02.881Z,100085.16
2018-11-05T09:40:34.639Z,100082.97
2018-11-05T09:43:08.450Z,100081.61
2018-11-05T09:45:41.517Z,100079.19
2018-11-05T09:48:14.483Z,100080.55
2018-11-05T09:50:48.514Z,100070.48
2018-11-05T09:53:22.066Z,100064.73
2018-11-05T09:55:55.445Z,100057.08
2018-11-05T09:58:28.476Z,100052.65
2018-11-05T10:01:01.482Z,100059.67
2018-11-05T10:03:53.368Z,100061.56
2018-11-05T10:06:27.291Z,100056.95
2018-11-05T10:09:00.440Z,100055.90
2018-11-05T10:11:34.288Z,100050.31
2018-11-05T10:14:07.468Z,100057.47
2018-11-05T10:16:40.502Z,100047.07
2018-11-05T10:19:13.502Z,100046.89
2018-11-05T10:21:46.504Z,100047.94
2018-11-05T10:24:19.545Z,100037.53
2018-11-05T10:26:52.500Z,100040.08
2018-11-05T10:29:25.464Z,100031.90
2018-11-05T10:31:58.505Z,100022.55
2018-11-05T10:34:31.504Z,100014.19
2018-11-05T10:37:04.489Z,100014.19
2018-11-05T10:39:37.509Z,100005.48
2018-11-05T10:42:10.479Z,100016.73
2018-11-05T10:44:43.468Z,100008.42
2018-11-05T10:47:16.498Z,100007.06
2018-11-05T10:49:49.484Z,100002.97
2018-11-05T10:52:22.631Z,100005.48
2018-11-05T10:54:55.610Z,100015.02
2018-11-05T10:57:28.543Z,100021.84
2018-11-05T11:00:01.687Z,100015.86
2018-11-05T11:02:42.070Z,100017.22
2018-11-05T11:05:15.333Z,100003.28
2018-11-05T11:07:48.478Z,99983.38
2018-11-05T11:10:21.522Z,99970.77
2018-11-05T11:12:54.509Z,99976.74
2018-11-05T11:15:27.526Z,99970.45
2018-11-05T11:18:00.539Z,99967.21
2018-11-05T11:20:33.527Z,99953.27
2018-11-05T11:23:06.586Z,99961.23
2018-11-05T11:25:39.530Z,99965.01
2018-11-05T11:28:12.539Z,99967.73
2018-11-05T11:30:45.472Z,99969.63
2018-11-05T11:33:18.506Z,99951.91
2018-11-05T11:35:51.521Z,99952.94
2018-11-05T11:38:24.522Z,99952.94
2018-11-05T11:40:58.062Z,99947.30
2018-11-05T11:43:31.446Z,99952.94
2018-11-05T11:46:04.546Z,99947.17
2018-11-05T11:48:38.451Z,99952.63
2018-11-05T11:51:11.519Z,99951.39
2018-11-05T11:53:44.502Z,99950.33
2018-11-05T11:56:17.503Z,99955.59
2018-11-05T11:58:50.469Z,99954.23
2018-11-05T12:01:23.500Z,99959.99
2018-11-05T12:03:56.524Z,99955.41
2018-11-05T12:06:29.500Z,99951.95
2018-11-05T12:11:42.242Z,99934.11
2018-11-05T12:14:15.537Z,99936.59
2018-11-05T12:16:48.568Z,99920.42
2018-11-05T12:19:22.277Z,99916.86
2018-11-05T12:21:55.520Z,99914.14
2018-11-05T12:24:28.532Z,99904.07
2018-11-05T12:27:01.693Z,99901.34
2018-11-05T12:29:34.684Z,99906.14
2018-11-05T12:32:08.048Z,99897.66
2018-11-05T12:34:43.275Z,99898.50
2018-11-05T12:37:16.522Z,99903.95
2018-11-05T12:39:49.674Z,99889.80
2018-11-05T12:42:22.726Z,99891.88
2018-11-05T12:44:55.897Z,99895.24
2018-11-05T12:47:29.747Z,99865.62
2018-11-05T12:50:03.065Z,99865.62
2018-11-05T12:52:36.618Z,99895.77
2018-11-05T12:55:11.655Z,99897.66
2018-11-05T12:57:45.398Z,99890.39
2018-11-05T13:00:25.290Z,99885.80
2018-11-05T13:03:00.295Z,99892.40
2018-11-05T13:05:34.284Z,99910.33
2018-11-05T13:08:07.810Z,99906.42
2018-11-05T13:10:40.549Z,99899.61
2018-11-05T13:13:13.653Z,99894.81
2018-11-05T13:15:47.591Z,99876.58
2018-11-05T13:18:21.552Z,99870.41
2018-11-05T13:20:55.382Z,99878.89
2018-11-05T13:23:39.809Z,99879.30
2018-11-05T13:26:13.666Z,99856.42
2018-11-05T13:28:47.287Z,99856.42
2018-11-05T13:31:20.786Z,99862.64
2018-11-05T13:33:54.549Z,99842.92
2018-11-05T13:36:28.102Z,99842.92
2018-11-05T13:39:01.992Z,99856.14
2018-11-05T13:41:36.315Z,99854.06
2018-11-05T13:44:10.067Z,99838.73
2018-11-05T13:46:45.120Z,99843.04
2018-11-05T13:49:18.752Z,99848.49
2018-11-05T13:51:52.308Z,99842.83
2018-11-05T13:54:25.926Z,99838.95
2018-11-05T13:56:59.587Z,99834.86
2018-11-05T13:59:33.295Z,99832.98
2018-11-05T14:02:06.934Z,99824.80
2018-11-05T14:04:39.254Z,99830.78
2018-11-05T14:07:13.325Z,99837.47
2018-11-05T14:09:47.336Z,99834.09
2018-11-05T14:12:21.270Z,99838.49
2018-11-05T14:14:54.995Z,99839.86
2018-11-05T14:17:28.572Z,99845.30
2018-11-05T14:20:02.276Z,99841.86
2018-11-05T14:22:35.768Z,99845.77
2018-11-05T14:25:11.796Z,99836.30
2018-11-05T14:27:46.726Z,99826.52
2018-11-05T14:30:20.049Z,99826.52
2018-11-05T14:32:53.608Z,99841.15
2018-11-05T14:35:27.281Z,99833.28
2018-11-05T14:38:01.341Z,99834.98
2018-11-05T14:40:34.791Z,99842.11
2018-11-05T14:43:08.732Z,99824.56
2018-11-05T14:45:42.325Z,99824.56
2018-11-05T14:48:15.770Z,99833.22
2018-11-05T14:50:49.461Z,99835.64
2018-11-05T14:53:23.308Z,99834.27
2018-11-05T14:55:56.798Z,99830.38
2018-11-05T14:58:30.761Z,99814.84
2018-11-05T15:01:04.670Z,99822.06
2018-11-05T15:03:38.558Z,99822.06
2018-11-05T15:06:13.059Z,99816.98
2018-11-05T15:08:46.588Z,99814.08
2018-11-05T15:11:21.280Z,99817.98
2018-11-05T15:13:54.806Z,99823.30
2018-11-05T15:16:28.786Z,99817.09
2018-11-05T15:19:01.733Z,99817.09
2018-11-05T15:21:34.245Z,99818.63
2018-11-05T15:24:08.281Z,99833.27
2018-11-05T15:26:41.805Z,99820.61
2018-11-05T15:29:16.046Z,99815.79
2018-11-05T15:31:49.574Z,99815.79
2018-11-05T15:34:23.378Z,99804.84
2018-11-05T15:36:57.467Z,99809.05
2018-11-05T15:39:32.266Z,99803.57
2018-11-05T15:42:05.789Z,99805.47
2018-11-05T15:44:39.523Z,99792.44
2018-11-05T15:47:13.716Z,99792.44
2018-11-05T15:49:47.380Z,99799.16
2018-11-05T15:52:21.843Z,99794.83
2018-11-05T15:54:55.249Z,99800.94
2018-11-05T15:57:28.773Z,99798.34
2018-11-05T16:00:02.716Z,99793.14
2018-11-05T16:02:36.562Z,99793.14
2018-11-05T16:05:10.060Z,99800.45
2018-11-05T16:07:43.782Z,99803.95
2018-11-05T16:10:17.735Z,99811.87
2018-11-05T16:12:51.854Z,99805.37
2018-11-05T16:15:24.272Z,99805.37
2018-11-05T16:17:57.810Z,99797.09
2018-11-05T16:20:31.528Z,99804.77
2018-11-05T16:23:05.257Z,99804.77
2018-11-05T16:25:38.828Z,99817.63
2018-11-05T16:28:12.502Z,99804.47
2018-11-05T16:30:46.093Z,99804.47
2018-11-05T16:33:20.285Z,99803.63
2018-11-05T16:35:53.773Z,99800.38
2018-11-05T16:38:27.596Z,99800.73
2018-11-05T16:41:01.365Z,99800.73
2018-11-05T16:43:35.268Z,99800.88
2018-11-05T16:46:10.130Z,99797.22
2018-11-05T16:48:43.783Z,99794.19
2018-11-05T16:51:17.511Z,99787.09
2018-11-05T16:53:51.442Z,99787.09
2018-11-05T16:56:25.331Z,99797.81
2018-11-05T16:58:58.765Z,99784.78
2018-11-05T17:01:32.812Z,99797.84
2018-11-05T17:04:06.374Z,99797.84
2018-11-05T17:06:39.775Z,99795.63
2018-11-05T17:09:14.279Z,99795.08
2018-11-05T17:11:47.787Z,99795.08
2018-11-05T17:14:21.362Z,99790.25
2018-11-05T17:16:55.513Z,99790.25
2018-11-05T17:19:29.273Z,99799.37
2018-11-05T17:22:03.274Z,99813.86
2018-11-05T17:24:36.771Z,99810.72
2018-11-05T17:27:12.775Z,99789.80
2018-11-05T17:29:46.599Z,99799.45
2018-11-05T17:32:20.643Z,99799.45
2018-11-05T17:34:54.550Z,99802.19
2018-11-05T17:37:28.510Z,99793.05
2018-11-05T17:40:02.300Z,99789.16
2018-11-05T17:42:35.782Z,99792.53
2018-11-05T17:45:11.755Z,99780.95
2018-11-05T17:47:45.509Z,99777.28
2018-11-05T17:50:20.668Z,99777.28
2018-11-05T17:52:54.574Z,99799.48
2018-11-05T17:55:28.276Z,99790.55
2018-11-05T17:58:01.795Z,99779.94
2018-11-05T18:00:35.861Z,99784.61
2018-11-05T18:03:09.254Z,99784.61
2018-11-05T18:05:43.369Z,99778.72
2018-11-05T18:08:17.393Z,99774.03
2018-11-05T18:10:51.604Z,99784.12
2018-11-05T18:13:25.495Z,99779.75
2018-11-05T18:15:59.270Z,99786.98
2018-11-05T18:18:33.047Z,99787.16
2018-11-05T18:21:06.710Z,99794.53
2018-11-05T18:23:40.481Z,99800.83
2018-11-05T18:26:15.274Z,99791.52
2018-11-05T18:28:49.278Z,99786.95
2018-11-05T18:31:22.834Z,99788.13
2018-11-05T18:33:56.559Z,99780.76
2018-11-05T18:36:30.373Z,99780.76
2018-11-05T18:39:04.064Z,99785.59
2018-11-05T18:41:37.648Z,99781.42
2018-11-05T18:44:11.278Z,99783.45
2018-11-05T18:46:44.789Z,99784.17
2018-11-05T18:49:19.052Z,99781.84
2018-11-05T18:51:52.736Z,99781.84
2018-11-05T18:54:26.273Z,99791.92
2018-11-05T18:57:00.780Z,99785.95
2018-11-05T18:59:34.536Z,99778.48
2018-11-05T19:02:08.373Z,99778.48
2018-11-05T19:04:41.781Z,99795.69
2018-11-05T19:07:15.889Z,99779.83
2018-11-05T19:09:48.445Z,99779.83
2018-11-05T19:12:22.279Z,99777.64
2018-11-05T19:14:55.826Z,99778.08
2018-11-05T19:17:29.561Z,99763.70
2018-11-05T19:20:03.343Z,99763.70
2018-11-05T19:22:37.659Z,99769.44
2018-11-05T19:25:14.392Z,99767.14
2018-11-05T19:27:47.483Z,99751.16
2018-11-05T19:30:23.643Z,99759.16
2018-11-05T19:32:56.649Z,99761.89
2018-11-05T19:35:29.661Z,99761.78
2018-11-05T19:38:02.676Z,99761.47
2018-11-05T19:40:35.641Z,99758.97
2018-11-05T19:43:09.382Z,99759.18
2018-11-05T19:45:43.275Z,99758.63
2018-11-05T19:48:16.610Z,99766.00
2018-11-05T19:50:50.280Z,99767.98
2018-11-05T19:56:36.634Z,99761.47
2018-11-05T19:59:10.543Z,99771.64
2018-11-05T20:01:44.301Z,99768.58
2018-11-05T20:04:17.487Z,99766.61
2018-11-05T20:06:50.571Z,99767.00
2018-11-05T20:09:57.769Z,99766.09
2018-11-05T20:12:30.362Z,99769.73
2018-11-05T20:15:03.887Z,99769.21
2018-11-05T20:17:41.437Z,99770.47
2018-11-05T20:20:15.504Z,99761.27
2018-11-05T20:22:48.597Z,99771.58
2018-11-05T20:25:21.634Z,99772.07
2018-11-05T20:27:54.556Z,99778.78
2018-11-05T20:30:28.722Z,99779.53
2018-11-05T20:33:01.807Z,99776.70
2018-11-05T20:35:34.647Z,99776.88
2018-11-05T20:38:07.690Z,99771.63
2018-11-05T20:40:40.624Z,99765.87
2018-11-05T20:43:13.644Z,99762.20
2018-11-05T20:45:46.688Z,99760.52
2018-11-05T20:48:20.054Z,99774.66
2018-11-05T20:50:53.626Z,99776.96
2018-11-05T20:53:27.339Z,99778.52
2018-11-05T20:56:00.756Z,99775.48
2018-11-05T20:58:34.823Z,99775.48
2018-11-05T21:01:08.703Z,99774.01
2018-11-05T21:03:42.624Z,99774.01
2018-11-05T21:06:16.274Z,99776.73
2018-11-05T21:08:49.784Z,99779.65
2018-11-05T21:11:23.654Z,99776.58
2018-11-05T21:13:57.473Z,99776.58
2018-11-05T21:16:31.374Z,99781.95
2018-11-05T21:19:04.784Z,99776.70
2018-11-05T21:21:38.413Z,99766.02
2018-11-05T21:24:11.786Z,99766.02
2018-11-05T21:26:45.936Z,99766.20
2018-11-05T21:29:19.536Z,99763.47
2018-11-05T21:31:53.262Z,99763.47
2018-11-05T21:34:26.773Z,99771.23
2018-11-05T21:37:00.533Z,99769.34
2018-11-05T21:39:34.278Z,99769.34
2018-11-05T21:42:07.764Z,99778.77
2018-11-05T21:44:41.495Z,99778.47
2018-11-05T21:47:15.741Z,99778.47
2018-11-05T21:49:48.792Z,99780.36
2018-11-05T21:52:22.360Z,99785.80
2018-11-05T21:54:56.300Z,99785.80
2018-11-05T21:57:30.271Z,99777.82
2018-11-05T22:00:04.365Z,99780.85
2018-11-05T22:02:55.534Z,99773.54
2018-11-05T22:05:29.275Z,99778.99
2018-11-05T22:08:02.749Z,99772.06
2018-11-05T22:10:36.339Z,99768.28
2018-11-05T22:13:10.286Z,99768.28
2018-11-05T22:15:47.627Z,99773.42
2018-11-05T22:18:21.361Z,99775.28
2018-11-05T22:20:54.758Z,99778.23
2018-11-05T22:23:28.472Z,99768.16
2018-11-05T22:26:01.790Z,99768.16
2018-11-05T22:28:35.622Z,99781.48
2018-11-05T22:31:09.317Z,99781.48
2018-11-05T22:33:42.828Z,99785.57
2018-11-05T22:36:16.711Z,99787.13
2018-11-05T22:38:50.286Z,99787.13
2018-11-05T22:41:23.793Z,99784.92
2018-11-05T22:43:57.578Z,99769.89
2018-11-05T22:46:30.843Z,99769.89
2018-11-05T22:49:03.581Z,99779.36
2018-11-05T22:51:36.356Z,99778.52
2018-11-05T22:54:09.934Z,99773.27
2018-11-05T22:56:42.242Z,99777.35
2018-11-05T22:59:15.821Z,99788.06
2018-11-05T23:01:56.377Z,99785.22
2018-11-05T23:06:09.730Z,99790.33
2018-11-05T23:08:43.352Z,99779.18
2018-11-05T23:11:16.490Z,99779.18
2018-11-05T23:13:49.551Z,99797.14
2018-11-05T23:16:22.641Z,99800.70
2018-11-05T23:18:55.622Z,99796.31
2018-11-05T23:21:28.541Z,99800.70
2018-11-05T23:24:01.749Z,99801.57
2018-11-05T23:26:35.388Z,99805.25
2018-11-05T23:29:09.355Z,99805.25
2018-11-05T23:31:42.811Z,99808.16
2018-11-05T23:34:16.595Z,99795.88
2018-11-05T23:36:50.281Z,99795.88
2018-11-05T23:39:24.037Z,99801.23
2018-11-05T23:41:57.669Z,99801.23
2018-11-05T23:44:31.577Z,99801.76
2018-11-05T23:47:05.300Z,99808.05
2018-11-05T23:49:39.332Z,99808.57
2018-11-05T23:52:13.408Z,99810.13
2018-11-05T23:54:47.286Z,99810.46
2018-11-05T23:57:20.731Z,99812.02
2018-11-05T23:59:54.531Z,99792.70
